Sentry Page Protection

Latest Glasgow METAR Decoded

What is a METAR?

Raw METAR: EGPF 221220Z 23013KT 9999 OVC042 16/10 Q1010
Time Published: Sat Jun 22 12:20:00 2024

Altimeter: 1010 hPa (29.83 inHg)
Clouds: Overcast layer at 4200ft - Reported AGL
Dewpoint: 10°C (50°F)
Temperature: 16°C (61°F)
Visibility: 10km (6.2sm)
Wind: SW-230 at 13kt

Data pulled from AVWX API.

Customise webcam positions

Apply changes